sensor_id;sensor_type;location;lat;lon;timestamp;temperature;humidity
51613;DHT22;37694;51.748;14.326;2023-04-08T00:00:48;23.10;39.80
51613;DHT22;37694;51.748;14.326;2023-04-08T00:03:14;23.10;39.90
51613;DHT22;37694;51.748;14.326;2023-04-08T00:05:40;23.10;39.80
51613;DHT22;37694;51.748;14.326;2023-04-08T00:08:05;23.00;39.80
51613;DHT22;37694;51.748;14.326;2023-04-08T00:10:31;23.10;39.90
51613;DHT22;37694;51.748;14.326;2023-04-08T00:12:57;23.00;39.80
51613;DHT22;37694;51.748;14.326;2023-04-08T00:15:25;23.00;39.80
51613;DHT22;37694;51.748;14.326;2023-04-08T00:17:51;23.00;39.80
51613;DHT22;37694;51.748;14.326;2023-04-08T00:20:19;23.00;39.90
51613;DHT22;37694;51.748;14.326;2023-04-08T00:22:45;23.00;39.90
51613;DHT22;37694;51.748;14.326;2023-04-08T00:25:11;23.00;39.90
51613;DHT22;37694;51.748;14.326;2023-04-08T00:27:37;22.90;39.90
51613;DHT22;37694;51.748;14.326;2023-04-08T00:30:03;22.90;40.10
51613;DHT22;37694;51.748;14.326;2023-04-08T00:32:28;22.90;40.00
51613;DHT22;37694;51.748;14.326;2023-04-08T00:34:54;22.90;40.00
51613;DHT22;37694;51.748;14.326;2023-04-08T00:37:20;22.90;40.00
51613;DHT22;37694;51.748;14.326;2023-04-08T00:39:47;22.90;39.90
51613;DHT22;37694;51.748;14.326;2023-04-08T00:42:13;22.90;39.90
51613;DHT22;37694;51.748;14.326;2023-04-08T00:44:39;22.90;39.90
51613;DHT22;37694;51.748;14.326;2023-04-08T00:47:04;22.90;39.90
51613;DHT22;37694;51.748;14.326;2023-04-08T00:49:30;22.90;39.90
51613;DHT22;37694;51.748;14.326;2023-04-08T00:51:57;22.80;39.80
51613;DHT22;37694;51.748;14.326;2023-04-08T00:54:23;22.80;39.80
51613;DHT22;37694;51.748;14.326;2023-04-08T00:56:48;22.80;39.90
51613;DHT22;37694;51.748;14.326;2023-04-08T00:59:16;22.80;39.90
51613;DHT22;37694;51.748;14.326;2023-04-08T01:05:00;22.80;39.90
51613;DHT22;37694;51.748;14.326;2023-04-08T01:07:34;22.80;40.00
51613;DHT22;37694;51.748;14.326;2023-04-08T01:10:11;22.70;39.90
51613;DHT22;37694;51.748;14.326;2023-04-08T01:12:47;22.70;39.90
51613;DHT22;37694;51.748;14.326;2023-04-08T01:15:13;22.70;39.90
51613;DHT22;37694;51.748;14.326;2023-04-08T01:17:40;22.70;39.90
51613;DHT22;37694;51.748;14.326;2023-04-08T01:20:08;22.70;39.90
51613;DHT22;37694;51.748;14.326;2023-04-08T01:25:25;22.70;39.90
51613;DHT22;37694;51.748;14.326;2023-04-08T01:27:52;22.70;39.90
51613;DHT22;37694;51.748;14.326;2023-04-08T01:30:23;22.70;40.00
51613;DHT22;37694;51.748;14.326;2023-04-08T01:32:51;22.70;40.00
51613;DHT22;37694;51.748;14.326;2023-04-08T01:35:17;22.60;39.90
51613;DHT22;37694;51.748;14.326;2023-04-08T01:37:44;22.70;40.00
51613;DHT22;37694;51.748;14.326;2023-04-08T01:40:11;22.60;40.00
51613;DHT22;37694;51.748;14.326;2023-04-08T01:42:37;22.60;40.00
51613;DHT22;37694;51.748;14.326;2023-04-08T01:45:04;22.60;39.90
51613;DHT22;37694;51.748;14.326;2023-04-08T01:47:30;22.60;40.00
51613;DHT22;37694;51.748;14.326;2023-04-08T01:49:57;22.60;40.00
51613;DHT22;37694;51.748;14.326;2023-04-08T01:52:24;22.60;39.90
51613;DHT22;37694;51.748;14.326;2023-04-08T01:54:51;22.60;39.90
51613;DHT22;37694;51.748;14.326;2023-04-08T01:57:22;22.60;39.90
51613;DHT22;37694;51.748;14.326;2023-04-08T01:59:50;22.60;40.00
51613;DHT22;37694;51.748;14.326;2023-04-08T02:02:19;22.60;39.90
51613;DHT22;37694;51.748;14.326;2023-04-08T02:04:45;22.60;39.90
51613;DHT22;37694;51.748;14.326;2023-04-08T02:07:11;22.50;39.90
51613;DHT22;37694;51.748;14.326;2023-04-08T02:09:37;22.60;40.70
51613;DHT22;37694;51.748;14.326;2023-04-08T02:12:03;22.50;39.90
51613;DHT22;37694;51.748;14.326;2023-04-08T02:14:29;22.50;40.00
51613;DHT22;37694;51.748;14.326;2023-04-08T02:17:18;22.50;40.00
51613;DHT22;37694;51.748;14.326;2023-04-08T02:19:59;22.50;39.90
51613;DHT22;37694;51.748;14.326;2023-04-08T02:22:32;22.50;40.00
51613;DHT22;37694;51.748;14.326;2023-04-08T02:25:03;22.50;40.10
51613;DHT22;37694;51.748;14.326;2023-04-08T02:27:33;22.50;40.90
51613;DHT22;37694;51.748;14.326;2023-04-08T02:30:02;22.50;40.00
51613;DHT22;37694;51.748;14.326;2023-04-08T02:32:32;22.50;40.00
51613;DHT22;37694;51.748;14.326;2023-04-08T02:35:00;22.50;40.10
51613;DHT22;37694;51.748;14.326;2023-04-08T02:37:32;22.40;40.20
51613;DHT22;37694;51.748;14.326;2023-04-08T02:39:58;22.40;40.90
51613;DHT22;37694;51.748;14.326;2023-04-08T02:42:25;22.40;40.20
51613;DHT22;37694;51.748;14.326;2023-04-08T02:44:51;22.40;40.20
51613;DHT22;37694;51.748;14.326;2023-04-08T02:47:16;22.40;40.20
51613;DHT22;37694;51.748;14.326;2023-04-08T02:49:42;22.40;40.10
51613;DHT22;37694;51.748;14.326;2023-04-08T02:52:08;22.40;40.10
51613;DHT22;37694;51.748;14.326;2023-04-08T02:54:33;22.40;40.10
51613;DHT22;37694;51.748;14.326;2023-04-08T02:56:59;22.40;40.10
51613;DHT22;37694;51.748;14.326;2023-04-08T02:59:25;22.30;40.10
51613;DHT22;37694;51.748;14.326;2023-04-08T03:01:51;22.40;40.20
51613;DHT22;37694;51.748;14.326;2023-04-08T03:04:16;22.30;40.20
51613;DHT22;37694;51.748;14.326;2023-04-08T03:06:42;22.30;40.10
51613;DHT22;37694;51.748;14.326;2023-04-08T03:09:08;22.30;40.20
51613;DHT22;37694;51.748;14.326;2023-04-08T03:11:34;22.30;40.10
51613;DHT22;37694;51.748;14.326;2023-04-08T03:13:59;22.30;40.20
51613;DHT22;37694;51.748;14.326;2023-04-08T03:16:25;22.30;40.10
51613;DHT22;37694;51.748;14.326;2023-04-08T03:18:51;22.30;40.20
51613;DHT22;37694;51.748;14.326;2023-04-08T03:21:17;22.30;40.20
51613;DHT22;37694;51.748;14.326;2023-04-08T03:23:43;22.30;40.20
51613;DHT22;37694;51.748;14.326;2023-04-08T03:26:09;22.30;40.10
51613;DHT22;37694;51.748;14.326;2023-04-08T03:28:35;22.30;40.20
51613;DHT22;37694;51.748;14.326;2023-04-08T03:31:03;22.30;40.30
51613;DHT22;37694;51.748;14.326;2023-04-08T03:33:29;22.30;40.20
51613;DHT22;37694;51.748;14.326;2023-04-08T03:35:55;22.30;40.20
51613;DHT22;37694;51.748;14.326;2023-04-08T03:38:20;22.30;40.20
51613;DHT22;37694;51.748;14.326;2023-04-08T03:40:46;22.30;40.20
51613;DHT22;37694;51.748;14.326;2023-04-08T03:43:12;22.30;40.20
51613;DHT22;37694;51.748;14.326;2023-04-08T03:45:38;22.20;40.20
51613;DHT22;37694;51.748;14.326;2023-04-08T03:48:04;22.20;40.20
51613;DHT22;37694;51.748;14.326;2023-04-08T03:50:30;22.20;40.10
51613;DHT22;37694;51.748;14.326;2023-04-08T03:52:56;22.20;40.10
51613;DHT22;37694;51.748;14.326;2023-04-08T03:55:21;22.20;40.10
51613;DHT22;37694;51.748;14.326;2023-04-08T03:57:47;22.20;40.20
51613;DHT22;37694;51.748;14.326;2023-04-08T04:00:13;22.20;40.20
51613;DHT22;37694;51.748;14.326;2023-04-08T04:02:39;22.20;40.10
51613;DHT22;37694;51.748;14.326;2023-04-08T04:05:05;22.20;40.20
51613;DHT22;37694;51.748;14.326;2023-04-08T04:07:31;22.20;40.30
51613;DHT22;37694;51.748;14.326;2023-04-08T04:09:57;22.20;40.30
51613;DHT22;37694;51.748;14.326;2023-04-08T04:12:23;22.20;40.20
51613;DHT22;37694;51.748;14.326;2023-04-08T04:14:48;22.20;40.30
51613;DHT22;37694;51.748;14.326;2023-04-08T04:17:14;22.10;40.20
51613;DHT22;37694;51.748;14.326;2023-04-08T04:19:40;22.10;40.20
51613;DHT22;37694;51.748;14.326;2023-04-08T04:22:06;22.10;40.40
51613;DHT22;37694;51.748;14.326;2023-04-08T04:24:31;22.10;40.30
51613;DHT22;37694;51.748;14.326;2023-04-08T04:26:57;22.10;40.50
51613;DHT22;37694;51.748;14.326;2023-04-08T04:29:22;22.10;40.50
51613;DHT22;37694;51.748;14.326;2023-04-08T04:31:48;22.00;40.30
51613;DHT22;37694;51.748;14.326;2023-04-08T04:34:14;22.10;40.30
51613;DHT22;37694;51.748;14.326;2023-04-08T04:36:39;22.00;40.30
51613;DHT22;37694;51.748;14.326;2023-04-08T04:39:05;22.10;40.50
51613;DHT22;37694;51.748;14.326;2023-04-08T04:41:31;22.10;40.50
51613;DHT22;37694;51.748;14.326;2023-04-08T04:43:56;22.00;40.60
51613;DHT22;37694;51.748;14.326;2023-04-08T04:46:22;22.00;40.60
51613;DHT22;37694;51.748;14.326;2023-04-08T04:48:48;22.00;40.60
51613;DHT22;37694;51.748;14.326;2023-04-08T04:51:13;22.00;40.70
51613;DHT22;37694;51.748;14.326;2023-04-08T04:53:39;22.00;40.70
51613;DHT22;37694;51.748;14.326;2023-04-08T04:56:05;22.00;40.70
51613;DHT22;37694;51.748;14.326;2023-04-08T04:58:31;22.00;40.70
51613;DHT22;37694;51.748;14.326;2023-04-08T05:00:57;22.10;40.60
51613;DHT22;37694;51.748;14.326;2023-04-08T05:03:23;22.10;40.70
51613;DHT22;37694;51.748;14.326;2023-04-08T05:05:55;22.10;40.70
51613;DHT22;37694;51.748;14.326;2023-04-08T05:08:21;22.00;40.70
51613;DHT22;37694;51.748;14.326;2023-04-08T05:10:46;22.10;40.80
51613;DHT22;37694;51.748;14.326;2023-04-08T05:13:14;22.10;40.80
51613;DHT22;37694;51.748;14.326;2023-04-08T05:15:40;22.00;40.80
51613;DHT22;37694;51.748;14.326;2023-04-08T05:18:06;22.00;40.70
51613;DHT22;37694;51.748;14.326;2023-04-08T05:20:32;22.00;40.90
51613;DHT22;37694;51.748;14.326;2023-04-08T05:22:58;22.00;40.90
51613;DHT22;37694;51.748;14.326;2023-04-08T05:25:23;22.00;40.80
51613;DHT22;37694;51.748;14.326;2023-04-08T05:27:49;22.00;40.80
51613;DHT22;37694;51.748;14.326;2023-04-08T05:30:15;22.00;40.90
51613;DHT22;37694;51.748;14.326;2023-04-08T05:32:41;22.00;40.80
51613;DHT22;37694;51.748;14.326;2023-04-08T05:35:07;22.00;40.90
51613;DHT22;37694;51.748;14.326;2023-04-08T05:37:34;22.00;41.10
51613;DHT22;37694;51.748;14.326;2023-04-08T05:39:59;22.00;41.30
51613;DHT22;37694;51.748;14.326;2023-04-08T05:42:25;22.10;41.30
51613;DHT22;37694;51.748;14.326;2023-04-08T05:44:51;22.10;41.30
51613;DHT22;37694;51.748;14.326;2023-04-08T05:47:17;22.30;41.30
51613;DHT22;37694;51.748;14.326;2023-04-08T05:49:42;22.30;41.40
51613;DHT22;37694;51.748;14.326;2023-04-08T05:52:08;22.40;41.50
51613;DHT22;37694;51.748;14.326;2023-04-08T05:54:33;22.50;41.60
51613;DHT22;37694;51.748;14.326;2023-04-08T05:56:59;22.50;41.60
51613;DHT22;37694;51.748;14.326;2023-04-08T05:59:25;22.60;41.70
51613;DHT22;37694;51.748;14.326;2023-04-08T06:01:51;22.60;41.60
51613;DHT22;37694;51.748;14.326;2023-04-08T06:04:16;22.70;41.60
51613;DHT22;37694;51.748;14.326;2023-04-08T06:06:42;22.80;41.60
51613;DHT22;37694;51.748;14.326;2023-04-08T06:09:08;22.90;41.80
51613;DHT22;37694;51.748;14.326;2023-04-08T06:11:37;22.90;41.70
51613;DHT22;37694;51.748;14.326;2023-04-08T06:14:02;23.00;41.60
51613;DHT22;37694;51.748;14.326;2023-04-08T06:16:28;23.00;41.90
51613;DHT22;37694;51.748;14.326;2023-04-08T06:18:54;23.10;41.60
51613;DHT22;37694;51.748;14.326;2023-04-08T06:21:19;23.10;41.60
51613;DHT22;37694;51.748;14.326;2023-04-08T06:23:45;23.20;41.60
51613;DHT22;37694;51.748;14.326;2023-04-08T06:26:11;23.30;41.80
51613;DHT22;37694;51.748;14.326;2023-04-08T06:28:37;23.40;41.80
51613;DHT22;37694;51.748;14.326;2023-04-08T06:31:03;23.40;41.60
51613;DHT22;37694;51.748;14.326;2023-04-08T06:33:29;23.50;41.60
51613;DHT22;37694;51.748;14.326;2023-04-08T06:36:04;23.60;41.60
51613;DHT22;37694;51.748;14.326;2023-04-08T06:38:30;23.60;41.50
51613;DHT22;37694;51.748;14.326;2023-04-08T06:41:05;23.70;41.70
51613;DHT22;37694;51.748;14.326;2023-04-08T06:43:32;23.70;41.50
51613;DHT22;37694;51.748;14.326;2023-04-08T06:45:58;23.70;41.40
51613;DHT22;37694;51.748;14.326;2023-04-08T06:48:24;23.80;41.40
51613;DHT22;37694;51.748;14.326;2023-04-08T06:50:55;23.80;41.30
51613;DHT22;37694;51.748;14.326;2023-04-08T06:53:25;23.80;41.30
51613;DHT22;37694;51.748;14.326;2023-04-08T06:55:51;23.90;41.30
51613;DHT22;37694;51.748;14.326;2023-04-08T06:58:17;23.90;41.50
51613;DHT22;37694;51.748;14.326;2023-04-08T07:00:43;23.90;41.50
51613;DHT22;37694;51.748;14.326;2023-04-08T07:03:09;23.90;41.40
51613;DHT22;37694;51.748;14.326;2023-04-08T07:05:36;23.90;41.40
51613;DHT22;37694;51.748;14.326;2023-04-08T07:08:03;24.00;41.40
51613;DHT22;37694;51.748;14.326;2023-04-08T07:10:29;24.00;41.40
51613;DHT22;37694;51.748;14.326;2023-04-08T07:12:54;24.00;41.20
51613;DHT22;37694;51.748;14.326;2023-04-08T07:15:21;24.00;41.40
51613;DHT22;37694;51.748;14.326;2023-04-08T07:17:46;24.00;41.40
51613;DHT22;37694;51.748;14.326;2023-04-08T07:20:12;23.90;41.00
51613;DHT22;37694;51.748;14.326;2023-04-08T07:22:39;24.00;41.00
51613;DHT22;37694;51.748;14.326;2023-04-08T07:25:05;23.90;40.90
51613;DHT22;37694;51.748;14.326;2023-04-08T07:27:32;23.90;40.80
51613;DHT22;37694;51.748;14.326;2023-04-08T07:29:58;23.90;40.70
51613;DHT22;37694;51.748;14.326;2023-04-08T07:32:24;23.90;41.20
51613;DHT22;37694;51.748;14.326;2023-04-08T07:34:49;23.90;41.50
51613;DHT22;37694;51.748;14.326;2023-04-08T07:37:15;23.90;41.70
51613;DHT22;37694;51.748;14.326;2023-04-08T07:39:42;23.90;42.00
51613;DHT22;37694;51.748;14.326;2023-04-08T07:42:08;23.90;42.10
51613;DHT22;37694;51.748;14.326;2023-04-08T07:44:33;23.90;42.20
51613;DHT22;37694;51.748;14.326;2023-04-08T07:46:59;23.90;42.70
51613;DHT22;37694;51.748;14.326;2023-04-08T07:49:25;23.90;42.30
51613;DHT22;37694;51.748;14.326;2023-04-08T07:51:50;23.90;42.30
51613;DHT22;37694;51.748;14.326;2023-04-08T07:54:16;23.90;42.20
51613;DHT22;37694;51.748;14.326;2023-04-08T07:56:45;24.00;42.40
51613;DHT22;37694;51.748;14.326;2023-04-08T07:59:11;24.00;42.20
51613;DHT22;37694;51.748;14.326;2023-04-08T08:01:36;24.00;42.60
51613;DHT22;37694;51.748;14.326;2023-04-08T08:04:02;24.00;42.80
51613;DHT22;37694;51.748;14.326;2023-04-08T08:06:29;24.00;42.80
51613;DHT22;37694;51.748;14.326;2023-04-08T08:08:57;24.00;43.00
51613;DHT22;37694;51.748;14.326;2023-04-08T08:11:22;24.00;42.80
51613;DHT22;37694;51.748;14.326;2023-04-08T08:13:48;24.10;42.90
51613;DHT22;37694;51.748;14.326;2023-04-08T08:16:14;24.10;42.90
51613;DHT22;37694;51.748;14.326;2023-04-08T08:18:40;24.10;42.90
51613;DHT22;37694;51.748;14.326;2023-04-08T08:21:06;24.10;43.00
51613;DHT22;37694;51.748;14.326;2023-04-08T08:23:32;24.10;42.80
51613;DHT22;37694;51.748;14.326;2023-04-08T08:26:05;24.10;42.70
51613;DHT22;37694;51.748;14.326;2023-04-08T08:28:32;24.10;43.40
51613;DHT22;37694;51.748;14.326;2023-04-08T08:30:58;24.10;42.70
51613;DHT22;37694;51.748;14.326;2023-04-08T08:33:24;24.20;43.30
51613;DHT22;37694;51.748;14.326;2023-04-08T08:35:50;24.20;43.20
51613;DHT22;37694;51.748;14.326;2023-04-08T08:38:16;24.20;43.50
51613;DHT22;37694;51.748;14.326;2023-04-08T08:40:43;24.20;43.90
51613;DHT22;37694;51.748;14.326;2023-04-08T08:43:11;24.20;43.60
51613;DHT22;37694;51.748;14.326;2023-04-08T08:45:41;24.20;43.70
51613;DHT22;37694;51.748;14.326;2023-04-08T08:48:07;24.10;43.60
51613;DHT22;37694;51.748;14.326;2023-04-08T08:50:34;24.10;44.20
51613;DHT22;37694;51.748;14.326;2023-04-08T08:53:00;24.20;43.90
51613;DHT22;37694;51.748;14.326;2023-04-08T08:55:29;24.20;43.40
51613;DHT22;37694;51.748;14.326;2023-04-08T08:57:55;24.20;41.90
51613;DHT22;37694;51.748;14.326;2023-04-08T09:00:40;24.10;42.10
51613;DHT22;37694;51.748;14.326;2023-04-08T09:03:20;24.10;41.20
51613;DHT22;37694;51.748;14.326;2023-04-08T09:05:51;24.00;41.10
51613;DHT22;37694;51.748;14.326;2023-04-08T09:10:56;23.90;39.20
51613;DHT22;37694;51.748;14.326;2023-04-08T09:13:35;23.90;39.10
51613;DHT22;37694;51.748;14.326;2023-04-08T09:16:09;23.90;39.40
51613;DHT22;37694;51.748;14.326;2023-04-08T09:18:35;23.90;39.00
51613;DHT22;37694;51.748;14.326;2023-04-08T09:21:06;23.80;38.20
51613;DHT22;37694;51.748;14.326;2023-04-08T09:23:39;23.70;39.00
51613;DHT22;37694;51.748;14.326;2023-04-08T09:26:15;23.70;37.80
51613;DHT22;37694;51.748;14.326;2023-04-08T09:28:42;23.70;37.90
51613;DHT22;37694;51.748;14.326;2023-04-08T09:31:21;23.60;37.80
51613;DHT22;37694;51.748;14.326;2023-04-08T09:33:48;23.70;38.30
51613;DHT22;37694;51.748;14.326;2023-04-08T09:36:15;23.60;37.70
51613;DHT22;37694;51.748;14.326;2023-04-08T09:38:42;23.60;37.40
51613;DHT22;37694;51.748;14.326;2023-04-08T09:41:12;23.60;37.20
51613;DHT22;37694;51.748;14.326;2023-04-08T09:43:53;23.50;37.30
51613;DHT22;37694;51.748;14.326;2023-04-08T09:46:51;23.50;37.30
51613;DHT22;37694;51.748;14.326;2023-04-08T09:52:10;23.40;36.70
51613;DHT22;37694;51.748;14.326;2023-04-08T09:57:24;23.40;36.60
51613;DHT22;37694;51.748;14.326;2023-04-08T10:00:02;23.40;36.70
51613;DHT22;37694;51.748;14.326;2023-04-08T10:02:39;23.30;36.20
51613;DHT22;37694;51.748;14.326;2023-04-08T10:05:06;23.30;36.90
51613;DHT22;37694;51.748;14.326;2023-04-08T10:07:34;23.30;37.20
51613;DHT22;37694;51.748;14.326;2023-04-08T10:10:00;23.30;37.40
51613;DHT22;37694;51.748;14.326;2023-04-08T10:12:26;23.40;38.10
51613;DHT22;37694;51.748;14.326;2023-04-08T10:18:41;23.40;38.40
51613;DHT22;37694;51.748;14.326;2023-04-08T10:20:46;23.50;38.40
51613;DHT22;37694;51.748;14.326;2023-04-08T10:23:17;23.60;38.60
51613;DHT22;37694;51.748;14.326;2023-04-08T10:25:44;23.70;38.60
51613;DHT22;37694;51.748;14.326;2023-04-08T10:30:38;23.80;38.70
51613;DHT22;37694;51.748;14.326;2023-04-08T10:35:51;23.90;38.40
51613;DHT22;37694;51.748;14.326;2023-04-08T10:38:18;23.90;37.80
51613;DHT22;37694;51.748;14.326;2023-04-08T10:40:45;23.90;37.80
51613;DHT22;37694;51.748;14.326;2023-04-08T10:43:13;23.90;37.60
51613;DHT22;37694;51.748;14.326;2023-04-08T10:45:39;23.90;37.40
51613;DHT22;37694;51.748;14.326;2023-04-08T10:48:21;23.90;37.00
51613;DHT22;37694;51.748;14.326;2023-04-08T10:53:26;23.90;37.20
51613;DHT22;37694;51.748;14.326;2023-04-08T10:55:53;23.90;36.80
51613;DHT22;37694;51.748;14.326;2023-04-08T10:58:19;23.90;36.80
51613;DHT22;37694;51.748;14.326;2023-04-08T11:00:45;24.00;37.00
51613;DHT22;37694;51.748;14.326;2023-04-08T11:03:11;23.90;37.60
51613;DHT22;37694;51.748;14.326;2023-04-08T11:05:37;24.00;37.30
51613;DHT22;37694;51.748;14.326;2023-04-08T11:08:04;24.00;37.30
51613;DHT22;37694;51.748;14.326;2023-04-08T11:10:30;24.00;37.70
51613;DHT22;37694;51.748;14.326;2023-04-08T11:12:59;24.00;37.90
51613;DHT22;37694;51.748;14.326;2023-04-08T11:15:25;24.00;37.90
51613;DHT22;37694;51.748;14.326;2023-04-08T11:17:53;24.00;38.10
51613;DHT22;37694;51.748;14.326;2023-04-08T11:20:19;24.10;38.30
51613;DHT22;37694;51.748;14.326;2023-04-08T11:22:46;24.00;38.80
51613;DHT22;37694;51.748;14.326;2023-04-08T11:25:12;24.10;38.50
51613;DHT22;37694;51.748;14.326;2023-04-08T11:27:38;24.00;38.40
51613;DHT22;37694;51.748;14.326;2023-04-08T11:30:06;24.10;38.60
51613;DHT22;37694;51.748;14.326;2023-04-08T11:32:34;24.10;38.80
51613;DHT22;37694;51.748;14.326;2023-04-08T11:35:01;24.10;38.90
51613;DHT22;37694;51.748;14.326;2023-04-08T11:37:39;24.10;38.90
51613;DHT22;37694;51.748;14.326;2023-04-08T11:40:09;24.10;39.20
51613;DHT22;37694;51.748;14.326;2023-04-08T11:42:36;24.10;39.40
51613;DHT22;37694;51.748;14.326;2023-04-08T11:45:09;24.10;39.50
51613;DHT22;37694;51.748;14.326;2023-04-08T11:47:35;24.00;39.40
51613;DHT22;37694;51.748;14.326;2023-04-08T11:50:02;24.00;39.60
51613;DHT22;37694;51.748;14.326;2023-04-08T11:52:41;24.00;39.60
51613;DHT22;37694;51.748;14.326;2023-04-08T11:55:12;24.00;39.40
51613;DHT22;37694;51.748;14.326;2023-04-08T11:57:46;24.00;39.70
51613;DHT22;37694;51.748;14.326;2023-04-08T12:00:12;24.00;39.70
51613;DHT22;37694;51.748;14.326;2023-04-08T12:02:39;24.00;39.50
51613;DHT22;37694;51.748;14.326;2023-04-08T12:05:05;24.00;39.90
51613;DHT22;37694;51.748;14.326;2023-04-08T12:07:31;23.90;39.80
51613;DHT22;37694;51.748;14.326;2023-04-08T12:09:57;23.90;39.90
51613;DHT22;37694;51.748;14.326;2023-04-08T12:12:23;23.90;40.10
51613;DHT22;37694;51.748;14.326;2023-04-08T12:14:48;23.90;40.10
51613;DHT22;37694;51.748;14.326;2023-04-08T12:17:14;23.90;39.80
51613;DHT22;37694;51.748;14.326;2023-04-08T12:19:40;23.90;39.50
51613;DHT22;37694;51.748;14.326;2023-04-08T12:22:06;23.90;39.50
51613;DHT22;37694;51.748;14.326;2023-04-08T12:24:32;23.90;38.80
51613;DHT22;37694;51.748;14.326;2023-04-08T12:26:57;23.80;38.60
51613;DHT22;37694;51.748;14.326;2023-04-08T12:29:23;23.80;38.90
51613;DHT22;37694;51.748;14.326;2023-04-08T12:31:49;23.80;38.30
51613;DHT22;37694;51.748;14.326;2023-04-08T12:34:14;23.70;38.30
51613;DHT22;37694;51.748;14.326;2023-04-08T12:36:41;23.70;38.40
51613;DHT22;37694;51.748;14.326;2023-04-08T12:39:09;23.70;38.60
51613;DHT22;37694;51.748;14.326;2023-04-08T12:41:34;23.70;38.70
51613;DHT22;37694;51.748;14.326;2023-04-08T12:44:00;23.70;38.70
51613;DHT22;37694;51.748;14.326;2023-04-08T12:46:26;23.70;38.50
51613;DHT22;37694;51.748;14.326;2023-04-08T12:48:52;23.70;38.00
51613;DHT22;37694;51.748;14.326;2023-04-08T12:51:18;23.60;37.50
51613;DHT22;37694;51.748;14.326;2023-04-08T12:53:44;23.60;37.00
51613;DHT22;37694;51.748;14.326;2023-04-08T12:56:10;23.60;37.20
51613;DHT22;37694;51.748;14.326;2023-04-08T12:58:35;23.60;37.10
51613;DHT22;37694;51.748;14.326;2023-04-08T13:01:01;23.50;36.70
51613;DHT22;37694;51.748;14.326;2023-04-08T13:03:27;23.50;37.30
51613;DHT22;37694;51.748;14.326;2023-04-08T13:05:56;23.50;36.40
51613;DHT22;37694;51.748;14.326;2023-04-08T13:08:24;23.50;36.30
51613;DHT22;37694;51.748;14.326;2023-04-08T13:10:49;23.40;36.20
51613;DHT22;37694;51.748;14.326;2023-04-08T13:13:15;23.40;36.20
51613;DHT22;37694;51.748;14.326;2023-04-08T13:15:41;23.40;36.10
51613;DHT22;37694;51.748;14.326;2023-04-08T13:18:06;23.40;36.00
51613;DHT22;37694;51.748;14.326;2023-04-08T13:20:32;23.40;35.90
51613;DHT22;37694;51.748;14.326;2023-04-08T13:22:58;23.40;35.70
51613;DHT22;37694;51.748;14.326;2023-04-08T13:25:25;23.40;36.10
51613;DHT22;37694;51.748;14.326;2023-04-08T13:27:51;23.30;36.50
51613;DHT22;37694;51.748;14.326;2023-04-08T13:30:17;23.40;36.40
51613;DHT22;37694;51.748;14.326;2023-04-08T13:32:42;23.40;36.50
51613;DHT22;37694;51.748;14.326;2023-04-08T13:35:08;23.40;36.50
51613;DHT22;37694;51.748;14.326;2023-04-08T13:37:34;23.40;36.70
51613;DHT22;37694;51.748;14.326;2023-04-08T13:39:59;23.40;37.30
51613;DHT22;37694;51.748;14.326;2023-04-08T13:42:25;23.50;37.50
51613;DHT22;37694;51.748;14.326;2023-04-08T13:44:51;23.50;37.70
51613;DHT22;37694;51.748;14.326;2023-04-08T13:47:17;23.50;37.90
51613;DHT22;37694;51.748;14.326;2023-04-08T13:49:43;23.50;37.90
51613;DHT22;37694;51.748;14.326;2023-04-08T13:52:09;23.50;37.90
51613;DHT22;37694;51.748;14.326;2023-04-08T13:54:34;23.50;38.10
51613;DHT22;37694;51.748;14.326;2023-04-08T13:57:00;23.60;38.40
51613;DHT22;37694;51.748;14.326;2023-04-08T13:59:26;23.60;38.30
51613;DHT22;37694;51.748;14.326;2023-04-08T14:01:52;23.60;38.30
51613;DHT22;37694;51.748;14.326;2023-04-08T14:04:19;23.60;38.60
51613;DHT22;37694;51.748;14.326;2023-04-08T14:06:45;23.50;38.70
51613;DHT22;37694;51.748;14.326;2023-04-08T14:09:11;23.60;38.60
51613;DHT22;37694;51.748;14.326;2023-04-08T14:11:37;23.50;38.70
51613;DHT22;37694;51.748;14.326;2023-04-08T14:14:02;23.60;38.50
51613;DHT22;37694;51.748;14.326;2023-04-08T14:16:28;23.50;38.60
51613;DHT22;37694;51.748;14.326;2023-04-08T14:18:56;23.50;38.50
51613;DHT22;37694;51.748;14.326;2023-04-08T14:21:22;23.50;38.50
51613;DHT22;37694;51.748;14.326;2023-04-08T14:23:48;23.50;38.50
51613;DHT22;37694;51.748;14.326;2023-04-08T14:26:14;23.60;38.60
51613;DHT22;37694;51.748;14.326;2023-04-08T14:28:40;23.60;38.60
51613;DHT22;37694;51.748;14.326;2023-04-08T14:31:05;23.50;38.80
51613;DHT22;37694;51.748;14.326;2023-04-08T14:33:31;23.50;39.00
51613;DHT22;37694;51.748;14.326;2023-04-08T14:35:57;23.50;38.90
51613;DHT22;37694;51.748;14.326;2023-04-08T14:38:25;23.60;39.10
51613;DHT22;37694;51.748;14.326;2023-04-08T14:40:50;23.60;38.90
51613;DHT22;37694;51.748;14.326;2023-04-08T14:43:16;23.60;39.00
51613;DHT22;37694;51.748;14.326;2023-04-08T14:45:42;23.50;38.90
51613;DHT22;37694;51.748;14.326;2023-04-08T14:48:09;23.50;38.80
51613;DHT22;37694;51.748;14.326;2023-04-08T14:50:35;23.50;38.80
51613;DHT22;37694;51.748;14.326;2023-04-08T14:53:01;23.50;38.80
51613;DHT22;37694;51.748;14.326;2023-04-08T14:55:27;23.50;38.80
51613;DHT22;37694;51.748;14.326;2023-04-08T14:57:55;23.50;38.80
51613;DHT22;37694;51.748;14.326;2023-04-08T15:00:21;23.50;38.80
51613;DHT22;37694;51.748;14.326;2023-04-08T15:02:47;23.50;38.80
51613;DHT22;37694;51.748;14.326;2023-04-08T15:05:12;23.50;38.80
51613;DHT22;37694;51.748;14.326;2023-04-08T15:07:38;23.50;38.90
51613;DHT22;37694;51.748;14.326;2023-04-08T15:10:04;23.50;38.90
51613;DHT22;37694;51.748;14.326;2023-04-08T15:12:31;23.50;39.00
51613;DHT22;37694;51.748;14.326;2023-04-08T15:14:57;23.50;39.30
51613;DHT22;37694;51.748;14.326;2023-04-08T15:17:23;23.50;39.20
51613;DHT22;37694;51.748;14.326;2023-04-08T15:19:50;23.50;39.30
51613;DHT22;37694;51.748;14.326;2023-04-08T15:22:16;23.50;39.30
51613;DHT22;37694;51.748;14.326;2023-04-08T15:24:42;23.50;39.10
51613;DHT22;37694;51.748;14.326;2023-04-08T15:27:08;23.50;39.00
51613;DHT22;37694;51.748;14.326;2023-04-08T15:29:34;23.50;39.00
51613;DHT22;37694;51.748;14.326;2023-04-08T15:32:00;23.50;39.10
51613;DHT22;37694;51.748;14.326;2023-04-08T15:34:26;23.50;39.10
51613;DHT22;37694;51.748;14.326;2023-04-08T15:36:53;23.50;39.20
51613;DHT22;37694;51.748;14.326;2023-04-08T15:39:18;23.50;39.30